createdAt,value
2022-09-22T03:01:38.664Z,9.10
2022-09-22T03:04:06.896Z,9.10
2022-09-22T03:06:34.835Z,9.10
2022-09-22T03:09:02.827Z,9.00
2022-09-22T03:11:30.651Z,9.00
2022-09-22T03:13:58.636Z,9.00
2022-09-22T03:16:26.439Z,8.90
2022-09-22T03:18:57.298Z,8.90
2022-09-22T03:21:25.195Z,8.80
2022-09-22T03:23:53.014Z,8.80
2022-09-22T03:26:20.807Z,8.80
2022-09-22T03:28:48.714Z,8.70
2022-09-22T03:31:16.583Z,8.80
2022-09-22T03:33:45.211Z,8.70
2022-09-22T03:36:16.379Z,8.80
2022-09-22T03:38:44.265Z,8.80
2022-09-22T03:41:12.066Z,8.80
2022-09-22T03:43:39.863Z,8.80
2022-09-22T03:46:07.919Z,8.80
2022-09-22T03:48:35.996Z,8.90
2022-09-22T03:51:04.416Z,8.90
2022-09-22T03:53:33.598Z,8.80
2022-09-22T03:56:09.186Z,8.80
2022-09-22T03:58:37.595Z,8.70
2022-09-22T04:01:06.919Z,8.70
2022-09-22T04:03:35.738Z,8.70
2022-09-22T04:06:04.293Z,8.70
2022-09-22T04:08:33.460Z,8.60
2022-09-22T04:11:01.670Z,8.70
2022-09-22T04:13:29.537Z,8.70
2022-09-22T04:15:57.399Z,8.60
2022-09-22T04:18:25.709Z,8.70
2022-09-22T04:20:57.611Z,8.70
2022-09-22T04:23:26.467Z,8.70
2022-09-22T04:25:55.656Z,8.70
2022-09-22T04:28:23.537Z,8.80
2022-09-22T04:30:51.638Z,8.90
2022-09-22T04:33:19.518Z,8.80
2022-09-22T04:35:49.519Z,8.80
2022-09-22T04:38:17.463Z,8.70
2022-09-22T04:40:45.952Z,8.70
2022-09-22T04:43:15.171Z,8.70
2022-09-22T04:45:45.084Z,8.60
2022-09-22T04:48:13.336Z,8.60
2022-09-22T04:50:45.740Z,8.70
2022-09-22T04:53:16.081Z,8.60
2022-09-22T04:55:43.888Z,8.60
2022-09-22T04:58:11.695Z,8.30
2022-09-22T05:00:40.880Z,8.10
2022-09-22T05:03:09.643Z,8.00
2022-09-22T05:05:38.108Z,8.00
2022-09-22T05:08:06.871Z,8.10
2022-09-22T05:10:36.722Z,8.10
2022-09-22T05:13:05.661Z,8.10
2022-09-22T05:15:34.612Z,8.10
2022-09-22T05:18:03.821Z,8.20
2022-09-22T05:20:31.687Z,8.10
2022-09-22T05:22:59.947Z,8.10
2022-09-22T05:25:28.162Z,8.20
2022-09-22T05:27:57.358Z,8.20
2022-09-22T05:30:26.566Z,8.20
2022-09-22T05:32:54.575Z,8.00
2022-09-22T05:35:25.709Z,7.80
2022-09-22T05:37:54.503Z,7.60
2022-09-22T05:40:24.186Z,7.60
2022-09-22T05:42:53.798Z,7.60
2022-09-22T05:45:22.372Z,7.60
2022-09-22T05:47:50.342Z,7.50
2022-09-22T05:50:19.659Z,7.40
2022-09-22T05:52:49.211Z,7.50
2022-09-22T05:55:17.271Z,7.50
2022-09-22T05:57:45.167Z,7.50
2022-09-22T06:00:14.201Z,7.50
2022-09-22T06:02:44.707Z,7.60
2022-09-22T06:05:15.606Z,7.70
2022-09-22T06:07:45.331Z,7.80
2022-09-22T06:10:14.457Z,7.80
2022-09-22T06:12:42.322Z,7.80
2022-09-22T06:15:10.961Z,7.80
2022-09-22T06:17:39.366Z,7.90
2022-09-22T06:20:08.472Z,7.90
2022-09-22T06:22:37.152Z,8.00
2022-09-22T06:25:08.967Z,8.10
2022-09-22T06:27:39.999Z,7.90
2022-09-22T06:30:11.076Z,8.10
2022-09-22T06:32:39.996Z,8.10
2022-09-22T06:35:08.463Z,8.20
2022-09-22T06:37:38.857Z,8.10
2022-09-22T06:40:08.225Z,8.10
2022-09-22T06:42:36.520Z,8.10
2022-09-22T06:45:06.550Z,8.10
2022-09-22T06:47:34.373Z,8.10
2022-09-22T06:50:05.445Z,8.10
2022-09-22T06:52:36.668Z,8.20
2022-09-22T06:55:05.945Z,8.10
2022-09-22T06:57:34.002Z,8.30
2022-09-22T07:00:02.347Z,8.50
2022-09-22T07:02:32.163Z,8.60
2022-09-22T07:04:59.967Z,8.70
2022-09-22T07:07:28.772Z,8.80
2022-09-22T07:09:56.763Z,8.90
2022-09-22T07:12:25.804Z,9.10
2022-09-22T07:14:56.365Z,9.20
2022-09-22T07:17:24.533Z,9.20
2022-09-22T07:19:56.233Z,9.20
2022-09-22T07:22:24.031Z,9.20
2022-09-22T07:24:51.859Z,9.20
2022-09-22T07:27:26.089Z,9.40
2022-09-22T07:29:54.973Z,9.50
2022-09-22T07:32:22.782Z,9.70
2022-09-22T07:34:52.649Z,9.70
2022-09-22T07:37:23.511Z,9.80
2022-09-22T07:39:51.374Z,9.80
2022-09-22T07:42:20.065Z,9.90
2022-09-22T07:45:05.581Z,10.00
2022-09-22T07:47:51.114Z,10.20
2022-09-22T07:50:18.941Z,10.30
2022-09-22T07:52:53.188Z,10.50
2022-09-22T07:55:25.018Z,10.50
2022-09-22T07:57:57.159Z,10.60
2022-09-22T08:00:26.531Z,10.80
2022-09-22T08:02:56.664Z,10.80
2022-09-22T08:05:25.861Z,10.90
2022-09-22T08:07:57.132Z,11.10
2022-09-22T08:10:25.932Z,11.20
2022-09-22T08:12:54.165Z,11.30
2022-09-22T08:15:26.889Z,11.40
2022-09-22T08:17:58.251Z,11.50
2022-09-22T08:20:28.825Z,11.60
2022-09-22T08:23:00.779Z,11.70
2022-09-22T08:25:28.766Z,11.80
2022-09-22T08:27:56.575Z,11.90
2022-09-22T08:30:24.409Z,11.90
2022-09-22T08:32:52.227Z,12.10
2022-09-22T08:35:20.379Z,12.10
2022-09-22T08:37:50.317Z,12.20
2022-09-22T08:40:23.662Z,12.20
2022-09-22T08:42:54.392Z,12.30
2022-09-22T08:45:30.294Z,12.40
2022-09-22T08:48:21.121Z,12.50
2022-09-22T08:51:08.595Z,12.60
2022-09-22T08:53:43.435Z,12.60
2022-09-22T08:56:21.999Z,12.80
2022-09-22T08:58:55.216Z,12.90
2022-09-22T09:01:36.385Z,13.00
2022-09-22T09:04:28.438Z,13.10
2022-09-22T09:07:04.698Z,13.20
2022-09-22T09:09:42.246Z,13.20
2022-09-22T09:12:29.790Z,13.30
2022-09-22T09:15:16.718Z,13.50
2022-09-22T09:17:47.230Z,13.60
2022-09-22T09:20:21.653Z,13.70
2022-09-22T09:22:55.634Z,13.90
2022-09-22T09:25:34.798Z,14.10
2022-09-22T09:28:07.537Z,14.30
2022-09-22T09:30:42.909Z,14.50
2022-09-22T09:33:19.407Z,14.80
2022-09-22T09:35:53.001Z,15.00
2022-09-22T09:38:28.497Z,15.10
2022-09-22T09:41:09.831Z,15.10
2022-09-22T09:43:43.049Z,15.20
2022-09-22T09:46:19.959Z,15.20
2022-09-22T09:49:05.754Z,15.20
2022-09-22T09:51:39.824Z,15.20
2022-09-22T09:54:14.406Z,15.20
2022-09-22T09:57:02.315Z,15.30
2022-09-22T09:59:49.469Z,15.30
2022-09-22T10:02:21.552Z,15.40
2022-09-22T10:04:52.532Z,15.50
2022-09-22T10:07:24.546Z,15.50
2022-09-22T10:09:53.507Z,15.50
2022-09-22T10:12:25.141Z,15.60
2022-09-22T10:14:56.391Z,15.60
2022-09-22T10:17:28.630Z,15.70
2022-09-22T10:20:21.400Z,15.70
2022-09-22T10:22:49.782Z,15.80
2022-09-22T10:25:23.917Z,15.80
2022-09-22T10:28:03.338Z,15.90
2022-09-22T10:30:37.311Z,15.90
2022-09-22T10:33:16.865Z,15.90
2022-09-22T10:35:47.120Z,16.00
2022-09-22T10:38:21.366Z,16.00
2022-09-22T10:40:55.897Z,16.10
2022-09-22T10:43:39.256Z,16.20
2022-09-22T10:46:34.633Z,16.20
2022-09-22T10:49:10.358Z,16.10
2022-09-22T10:51:52.430Z,16.10
2022-09-22T10:54:42.947Z,16.10
2022-09-22T10:57:23.595Z,16.10
2022-09-22T11:00:20.136Z,16.10
2022-09-22T11:03:32.594Z,16.20
2022-09-22T11:06:45.601Z,16.30
2022-09-22T11:12:22.014Z,16.40
2022-09-22T11:15:02.468Z,16.50
2022-09-22T11:17:45.464Z,16.60
2022-09-22T11:20:30.041Z,16.70
2022-09-22T11:23:16.909Z,16.80
2022-09-22T11:26:01.828Z,16.90
2022-09-22T11:28:57.291Z,16.90
2022-09-22T11:31:43.075Z,16.80
2022-09-22T11:34:33.334Z,17.00
2022-09-22T11:37:26.299Z,17.20
2022-09-22T11:40:07.538Z,17.30
2022-09-22T11:42:45.383Z,17.30
2022-09-22T11:45:25.111Z,17.30
2022-09-22T11:48:03.802Z,17.20
2022-09-22T11:50:40.166Z,17.20
2022-09-22T11:53:21.225Z,17.20
2022-09-22T11:55:58.183Z,17.30
2022-09-22T11:58:29.351Z,17.30
2022-09-22T12:01:03.283Z,17.20
2022-09-22T12:03:39.990Z,17.20
2022-09-22T12:06:12.518Z,17.10
2022-09-22T12:08:47.044Z,17.10
2022-09-22T12:11:17.756Z,17.10
2022-09-22T12:13:47.781Z,17.10
2022-09-22T12:16:22.417Z,17.00
2022-09-22T12:18:57.501Z,17.00
2022-09-22T12:21:43.404Z,17.00
2022-09-22T12:24:13.663Z,17.00
2022-09-22T12:26:43.834Z,17.20
2022-09-22T12:29:24.433Z,17.30
2022-09-22T12:31:55.351Z,17.30
2022-09-22T12:34:26.114Z,17.30
2022-09-22T12:36:56.179Z,17.40
2022-09-22T12:39:28.898Z,17.40
2022-09-22T12:41:59.350Z,17.40
2022-09-22T12:44:29.748Z,17.30
2022-09-22T12:47:02.405Z,17.40
2022-09-22T12:49:31.320Z,17.40
2022-09-22T12:51:59.252Z,17.40
2022-09-22T12:54:51.345Z,17.40
2022-09-22T12:57:29.474Z,17.40
2022-09-22T13:00:08.006Z,17.40
2022-09-22T13:02:43.283Z,17.50
2022-09-22T13:05:46.414Z,17.60
2022-09-22T13:08:19.915Z,17.80
2022-09-22T13:11:00.411Z,17.70
2022-09-22T13:13:40.495Z,17.80
2022-09-22T13:16:35.200Z,17.70
2022-09-22T13:19:03.843Z,17.70
2022-09-22T13:21:33.304Z,17.70
2022-09-22T13:24:03.698Z,17.80
2022-09-22T13:26:35.114Z,17.90
2022-09-22T13:29:07.595Z,18.00
2022-09-22T13:31:43.314Z,17.90
2022-09-22T13:34:22.147Z,18.00
2022-09-22T13:36:51.407Z,18.10
2022-09-22T13:39:22.963Z,18.20
2022-09-22T13:41:55.251Z,18.20
2022-09-22T13:44:28.823Z,18.20
2022-09-22T13:46:58.805Z,18.40
2022-09-22T13:49:32.069Z,18.50
2022-09-22T13:52:02.768Z,18.80
2022-09-22T13:54:33.905Z,20.00
2022-09-22T13:57:05.791Z,22.20
2022-09-22T13:59:40.260Z,24.90
2022-09-22T14:02:10.661Z,27.00
2022-09-22T14:04:38.769Z,28.60
2022-09-22T14:07:10.923Z,29.70
2022-09-22T14:09:40.192Z,30.50
2022-09-22T14:12:11.454Z,31.00
2022-09-22T14:14:40.269Z,31.40
2022-09-22T14:17:14.635Z,31.70
2022-09-22T14:19:46.151Z,30.70
2022-09-22T14:22:18.900Z,30.90
2022-09-22T14:24:50.500Z,31.60
2022-09-22T14:27:24.319Z,32.30
2022-09-22T14:29:54.011Z,32.80
2022-09-22T14:32:27.265Z,32.80
2022-09-22T14:34:58.484Z,33.00
2022-09-22T14:37:31.157Z,33.80
2022-09-22T14:40:02.481Z,33.60
2022-09-22T14:42:34.105Z,33.60
2022-09-22T14:45:20.886Z,33.90
2022-09-22T14:48:08.878Z,33.60
2022-09-22T14:50:41.467Z,33.00
2022-09-22T14:53:19.018Z,32.60
2022-09-22T14:55:49.599Z,31.80
2022-09-22T14:58:22.057Z,31.10
2022-09-22T15:01:13.821Z,30.80
2022-09-22T15:03:45.171Z,31.00
2022-09-22T15:06:15.665Z,30.70
2022-09-22T15:08:44.763Z,29.60
2022-09-22T15:11:13.058Z,28.60
2022-09-22T15:13:42.202Z,29.00
2022-09-22T15:16:38.163Z,28.80
2022-09-22T15:19:06.448Z,27.50
2022-09-22T15:21:46.803Z,26.10
2022-09-22T15:24:15.885Z,25.20
2022-09-22T15:26:44.214Z,24.00
2022-09-22T15:29:13.229Z,23.10
2022-09-22T15:31:41.167Z,22.60
2022-09-22T15:34:10.417Z,22.10
2022-09-22T15:36:45.395Z,21.80
2022-09-22T15:39:20.270Z,21.40
2022-09-22T15:41:48.616Z,21.10
2022-09-22T15:44:16.485Z,20.80
2022-09-22T15:46:48.458Z,20.50
2022-09-22T15:49:20.751Z,20.40
2022-09-22T15:51:50.385Z,20.10
2022-09-22T15:54:20.915Z,19.90
2022-09-22T15:56:52.395Z,19.80
2022-09-22T15:59:22.411Z,19.60
2022-09-22T16:01:51.825Z,19.50
2022-09-22T16:04:20.050Z,19.40
2022-09-22T16:06:54.171Z,19.30
2022-09-22T16:09:22.121Z,19.10
2022-09-22T16:11:50.087Z,19.00
2022-09-22T16:14:18.601Z,18.90
2022-09-22T16:16:46.479Z,18.90
2022-09-22T16:19:14.314Z,18.80
2022-09-22T16:21:51.633Z,18.70
2022-09-22T16:24:20.782Z,18.70
2022-09-22T16:26:49.037Z,18.70
2022-09-22T16:29:16.863Z,18.60
2022-09-22T16:31:44.832Z,18.50
2022-09-22T16:34:12.846Z,18.30
2022-09-22T16:36:41.642Z,18.30
2022-09-22T16:39:13.081Z,18.20
2022-09-22T16:41:45.575Z,18.20
2022-09-22T16:44:13.695Z,18.10
2022-09-22T16:46:42.712Z,18.10
2022-09-22T16:49:12.760Z,18.00
2022-09-22T16:51:42.597Z,18.00
2022-09-22T16:54:12.236Z,17.90
2022-09-22T16:56:44.300Z,17.80
2022-09-22T16:59:13.219Z,17.70
2022-09-22T17:01:41.078Z,17.70
2022-09-22T17:04:09.764Z,17.60
2022-09-22T17:06:38.276Z,17.50
2022-09-22T17:09:07.404Z,17.50
2022-09-22T17:11:36.722Z,17.30
2022-09-22T17:14:12.134Z,17.30
2022-09-22T17:16:41.468Z,17.20
2022-09-22T17:19:11.749Z,17.20
2022-09-22T17:21:41.079Z,17.10
2022-09-22T17:24:09.703Z,17.00
2022-09-22T17:26:40.632Z,17.00
2022-09-22T17:29:10.855Z,16.90
2022-09-22T17:31:41.641Z,16.80
2022-09-22T17:34:10.432Z,16.80
2022-09-22T17:36:38.509Z,16.80
2022-09-22T17:39:07.367Z,16.70
2022-09-22T17:41:35.366Z,16.60
2022-09-22T17:44:04.445Z,16.60
2022-09-22T17:46:35.476Z,16.50
2022-09-22T17:49:20.990Z,16.40
2022-09-22T17:52:07.820Z,16.30
2022-09-22T17:54:55.121Z,16.20
2022-09-22T17:57:24.887Z,16.10
2022-09-22T17:59:53.178Z,16.10
2022-09-22T18:02:22.761Z,16.00
2022-09-22T18:04:50.619Z,15.90
2022-09-22T18:07:20.403Z,15.80
2022-09-22T18:09:50.096Z,15.80
2022-09-22T18:12:21.451Z,15.70
2022-09-22T18:14:51.996Z,15.70
2022-09-22T18:17:23.234Z,15.60
2022-09-22T18:19:54.207Z,15.50
2022-09-22T18:22:23.931Z,15.50
2022-09-22T18:24:55.379Z,15.40
2022-09-22T18:27:25.511Z,15.30
2022-09-22T18:29:58.232Z,15.30
2022-09-22T18:32:28.412Z,15.20
2022-09-22T18:34:56.299Z,15.20
2022-09-22T18:37:25.409Z,15.20
2022-09-22T18:39:53.358Z,15.10
2022-09-22T18:42:24.145Z,15.00
2022-09-22T18:44:52.419Z,15.00
2022-09-22T18:47:23.093Z,15.00
2022-09-22T18:49:52.469Z,15.00
2022-09-22T18:52:24.131Z,14.90
2022-09-22T18:54:54.331Z,14.80
2022-09-22T18:57:24.537Z,14.70
2022-09-22T18:59:53.829Z,14.70
2022-09-22T19:02:22.347Z,14.70
2022-09-22T19:04:52.179Z,14.60
2022-09-22T19:07:41.340Z,14.60
2022-09-22T19:10:11.815Z,14.50
2022-09-22T19:12:40.297Z,14.50
2022-09-22T19:15:13.233Z,14.50
2022-09-22T19:17:44.065Z,14.40
2022-09-22T19:20:17.112Z,14.40
2022-09-22T19:22:45.080Z,14.40
2022-09-22T19:25:13.175Z,14.30
2022-09-22T19:27:41.155Z,14.30
2022-09-22T19:30:10.078Z,14.20
2022-09-22T19:32:38.083Z,14.20
2022-09-22T19:35:06.783Z,14.20
2022-09-22T19:37:36.325Z,14.10
2022-09-22T19:40:04.952Z,14.10
2022-09-22T19:42:37.985Z,14.10
2022-09-22T19:45:08.423Z,14.00
2022-09-22T19:47:36.399Z,14.00
2022-09-22T19:50:06.465Z,14.00
2022-09-22T19:52:36.302Z,13.90
2022-09-22T19:55:04.741Z,13.90
2022-09-22T19:57:32.845Z,13.80
2022-09-22T20:00:00.732Z,13.80
2022-09-22T20:02:28.533Z,13.80
2022-09-22T20:04:57.020Z,13.70
2022-09-22T20:07:27.660Z,13.70
2022-09-22T20:09:57.202Z,13.70
2022-09-22T20:12:25.079Z,13.60
2022-09-22T20:14:54.492Z,13.60
2022-09-22T20:17:23.084Z,13.50
2022-09-22T20:19:50.887Z,13.40
2022-09-22T20:22:24.043Z,13.40
2022-09-22T20:24:55.239Z,13.30
2022-09-22T20:27:26.607Z,13.30
2022-09-22T20:29:57.269Z,13.20
2022-09-22T20:32:25.850Z,13.20
2022-09-22T20:34:54.792Z,13.20
2022-09-22T20:37:23.535Z,13.20
2022-09-22T20:39:51.506Z,13.10
2022-09-22T20:42:19.379Z,13.10
2022-09-22T20:44:49.118Z,13.00
2022-09-22T20:47:18.701Z,13.00
2022-09-22T20:49:51.318Z,13.00
2022-09-22T20:52:20.759Z,13.00
2022-09-22T20:54:49.289Z,12.90
2022-09-22T20:57:17.486Z,12.90
2022-09-22T20:59:45.739Z,12.80
2022-09-22T21:02:15.736Z,12.80
2022-09-22T21:04:43.678Z,12.80
2022-09-22T21:07:12.223Z,12.80
2022-09-22T21:09:57.507Z,12.70
2022-09-22T21:12:30.673Z,12.60
2022-09-22T21:14:59.477Z,12.60
2022-09-22T21:17:29.614Z,12.60
2022-09-22T21:19:57.744Z,12.50
2022-09-22T21:22:27.939Z,12.60
2022-09-22T21:24:56.346Z,12.60
2022-09-22T21:27:24.621Z,12.60
2022-09-22T21:29:56.093Z,12.60
